X  Fechar Dados meteorológicos de METAR da aviação     EHRD Rotterdam The Hague Airport
Temperatura
21°C Temperatura
17°C Ponto de orvalho
78% Umidade



Vento
4 M/S
8 MPH
13 KM/H
7 NÓS



310°
NO
Condições atuais

Encoberto Encoberto
Pressão 1014.9 (hPa) - 29.97 (inHg)
Visibilidade 6 (milha) - 9.7 (km)
Aeroporto
Código do aeroporto EHRD

Localização: Rotterdam The Hague Airport
Distância: 23 (km)

Metar:
EHRD 231155Z AUTO 31007KT 230V360 9999 OVC015 21/17 Q1015 TEMPO 6000 SHRA BKN014 FEW020CB

Hora: 23-07-2024 13:55 CEST